createdAt,value
2018-06-01T00:00:14.466Z,0
2018-06-01T00:01:14.460Z,0
2018-06-01T00:02:14.511Z,0
2018-06-01T00:03:14.530Z,0
2018-06-01T00:04:14.579Z,0
2018-06-01T00:05:14.604Z,0
2018-06-01T00:06:14.887Z,0
2018-06-01T00:07:14.927Z,0
2018-06-01T00:08:14.967Z,0
2018-06-01T00:09:14.977Z,0
2018-06-01T00:10:14.451Z,0
2018-06-01T00:11:15.011Z,0
2018-06-01T00:12:14.789Z,0
2018-06-01T00:13:14.811Z,0
2018-06-01T00:14:15.117Z,0
2018-06-01T00:15:14.889Z,0
2018-06-01T00:16:15.140Z,0
2018-06-01T00:17:14.947Z,0
2018-06-01T00:18:14.697Z,0
2018-06-01T00:19:15.235Z,0
2018-06-01T00:20:15.021Z,0
2018-06-01T00:21:15.042Z,0
2018-06-01T00:22:15.050Z,0
2018-06-01T00:23:15.081Z,0
2018-06-01T00:24:15.114Z,0
2018-06-01T00:25:15.643Z,0
2018-06-01T00:26:15.465Z,0
2018-06-01T00:27:15.226Z,0
2018-06-01T00:28:15.520Z,0
2018-06-01T00:29:15.258Z,0
2018-06-01T00:30:15.285Z,0
2018-06-01T00:31:15.313Z,0
2018-06-01T00:32:15.348Z,0
2018-06-01T00:33:15.089Z,0
2018-06-01T00:34:15.673Z,0
2018-06-01T00:35:15.706Z,0
2018-06-01T00:36:15.729Z,0
2018-06-01T00:37:15.486Z,0
2018-06-01T00:38:15.751Z,0
2018-06-01T00:39:15.825Z,0
2018-06-01T00:40:15.572Z,0
2018-06-01T00:41:15.867Z,0
2018-06-01T00:42:15.914Z,0
2018-06-01T00:43:15.386Z,0
2018-06-01T00:44:15.935Z,0
2018-06-01T00:45:15.993Z,0
2018-06-01T00:46:16.006Z,0
2018-06-01T00:47:15.766Z,0
2018-06-01T00:48:15.789Z,0
2018-06-01T00:49:15.827Z,0
2018-06-01T00:50:16.113Z,0
2018-06-01T00:51:16.131Z,0
2018-06-01T00:52:16.144Z,0
2018-06-01T00:53:15.663Z,0
2018-06-01T00:54:15.924Z,0
2018-06-01T00:55:15.993Z,0
2018-06-01T00:56:15.754Z,0
2018-06-01T00:57:16.038Z,0
2018-06-01T00:58:16.330Z,0
2018-06-01T00:59:16.105Z,0
2018-06-01T01:00:16.358Z,0
2018-06-01T01:01:16.160Z,0
2018-06-01T01:02:16.451Z,0
2018-06-01T01:03:16.191Z,0
2018-06-01T01:04:15.947Z,0
2018-06-01T01:05:16.233Z,0
2018-06-01T01:06:16.569Z,0
2018-06-01T01:07:16.571Z,0
2018-06-01T01:08:16.329Z,0
2018-06-01T01:09:16.640Z,0
2018-06-01T01:10:16.631Z,0
2018-06-01T01:11:16.690Z,0
2018-06-01T01:12:16.458Z,0
2018-06-01T01:13:16.531Z,0
2018-06-01T01:14:16.517Z,0
2018-06-01T01:15:16.806Z,0
2018-06-01T01:16:16.547Z,0
2018-06-01T01:17:16.589Z,0
2018-06-01T01:18:16.582Z,0
2018-06-01T01:19:16.629Z,0
2018-06-01T01:20:16.645Z,0
2018-06-01T01:21:16.954Z,0
2018-06-01T01:22:16.967Z,0
2018-06-01T01:23:16.470Z,0
2018-06-01T01:24:16.775Z,0
2018-06-01T01:25:16.820Z,0
2018-06-01T01:26:16.753Z,0
2018-06-01T01:27:16.835Z,0
2018-06-01T01:28:16.886Z,0
2018-06-01T01:29:16.908Z,0
2018-06-01T01:30:16.955Z,0
2018-06-01T01:31:16.943Z,0
2018-06-01T01:32:16.718Z,0
2018-06-01T01:33:17.275Z,0
2018-06-01T01:34:17.324Z,0
2018-06-01T01:35:17.063Z,0
2018-06-01T01:36:17.364Z,0
2018-06-01T01:37:17.113Z,0
2018-06-01T01:38:17.406Z,0
2018-06-01T01:39:17.171Z,0
2018-06-01T01:40:17.493Z,0
2018-06-01T01:41:17.295Z,0
2018-06-01T01:42:17.275Z,0
2018-06-01T01:43:17.288Z,0
2018-06-01T01:44:17.605Z,0
2018-06-01T01:45:17.077Z,0
2018-06-01T01:46:17.630Z,0
2018-06-01T01:47:17.692Z,0
2018-06-01T01:48:17.682Z,0
2018-06-01T01:49:17.435Z,0
2018-06-01T01:50:17.757Z,0
2018-06-01T01:51:17.504Z,0
2018-06-01T01:52:17.813Z,0
2018-06-01T01:53:17.821Z,0
2018-06-01T01:54:17.308Z,0
2018-06-01T01:55:17.066Z,0
2018-06-01T01:56:17.617Z,0
2018-06-01T01:57:17.682Z,0
2018-06-01T01:58:17.689Z,0
2018-06-01T01:59:17.989Z,0
2018-06-01T02:00:17.742Z,0
2018-06-01T02:01:18.051Z,0
2018-06-01T02:02:18.088Z,0
2018-06-01T02:03:18.092Z,0
2018-06-01T02:04:18.130Z,0
2018-06-01T02:05:17.868Z,0
2018-06-01T02:06:17.896Z,0
2018-06-01T02:07:17.678Z,0
2018-06-01T02:08:18.221Z,0
2018-06-01T02:09:17.991Z,0
2018-06-01T02:10:18.026Z,0
2018-06-01T02:11:18.325Z,0
2018-06-01T02:12:18.079Z,0
2018-06-01T02:13:18.112Z,0
2018-06-01T02:14:18.103Z,0
2018-06-01T02:15:18.146Z,0
2018-06-01T02:16:18.182Z,0
2018-06-01T02:17:18.476Z,0
2018-06-01T02:18:18.225Z,0
2018-06-01T02:19:17.985Z,0
2018-06-01T02:20:18.623Z,0
2018-06-01T02:21:18.313Z,0
2018-06-01T02:22:18.507Z,0
2018-06-01T02:23:19.252Z,0
2018-06-01T02:24:18.377Z,0
2018-06-01T02:25:18.132Z,0
2018-06-01T02:26:18.456Z,0
2018-06-01T02:27:18.807Z,0
2018-06-01T02:28:18.512Z,0
2018-06-01T02:29:18.237Z,0
2018-06-01T02:30:18.840Z,0
2018-06-01T02:31:18.576Z,0
2018-06-01T02:32:18.888Z,0
2018-06-01T02:33:18.912Z,0
2018-06-01T02:34:18.628Z,0
2018-06-01T02:35:18.961Z,4
2018-06-01T02:36:18.992Z,4
2018-06-01T02:37:18.999Z,4
2018-06-01T02:38:18.761Z,4
2018-06-01T02:39:19.056Z,0
2018-06-01T02:40:18.836Z,4
2018-06-01T02:41:19.121Z,4
2018-06-01T02:42:19.189Z,0
2018-06-01T02:43:19.195Z,4
2018-06-01T02:44:18.635Z,4
2018-06-01T02:45:18.934Z,8
2018-06-01T02:46:18.971Z,4
2018-06-01T02:47:18.991Z,4
2018-06-01T02:48:19.325Z,8
2018-06-01T02:49:19.348Z,8
2018-06-01T02:50:19.352Z,8
2018-06-01T02:51:19.117Z,8
2018-06-01T02:52:19.385Z,8
2018-06-01T02:53:19.161Z,12
2018-06-01T02:54:19.189Z,12
2018-06-01T02:55:19.475Z,16
2018-06-01T02:56:19.518Z,16
2018-06-01T02:57:19.277Z,16
2018-06-01T02:58:19.565Z,16
2018-06-01T02:59:19.042Z,20
2018-06-01T03:00:19.321Z,20
2018-06-01T03:01:19.391Z,24
2018-06-01T03:02:19.676Z,24
2018-06-01T03:03:19.705Z,28
2018-06-01T03:04:19.733Z,24
2018-06-01T03:05:19.767Z,28
2018-06-01T03:06:19.774Z,32
2018-06-01T03:07:19.515Z,36
2018-06-01T03:08:19.834Z,36
2018-06-01T03:09:19.046Z,36
2018-06-01T03:10:19.365Z,44
2018-06-01T03:11:19.378Z,44
2018-06-01T03:12:20.000Z,48
2018-06-01T03:13:19.954Z,48
2018-06-01T03:14:19.876Z,52
2018-06-01T03:15:19.475Z,52
2018-06-01T03:16:19.755Z,56
2018-06-01T03:17:20.078Z,60
2018-06-01T03:18:20.086Z,68
2018-06-01T03:19:20.107Z,68
2018-06-01T03:20:19.873Z,76
2018-06-01T03:21:20.163Z,76
2018-06-01T03:22:20.201Z,84
2018-06-01T03:23:19.936Z,88
2018-06-01T03:24:20.276Z,92
2018-06-01T03:25:19.989Z,96
2018-06-01T03:26:20.181Z,100
2018-06-01T03:27:20.026Z,104
2018-06-01T03:28:20.099Z,108
2018-06-01T03:29:20.353Z,116
2018-06-01T03:30:20.465Z,120
2018-06-01T03:31:20.184Z,124
2018-06-01T03:32:20.195Z,124
2018-06-01T03:33:20.230Z,128
2018-06-01T03:34:20.497Z,132
2018-06-01T03:35:20.524Z,140
2018-06-01T03:36:20.268Z,148
2018-06-01T03:37:20.311Z,148
2018-06-01T03:38:20.583Z,148
2018-06-01T03:39:20.105Z,148
2018-06-01T03:40:20.665Z,144
2018-06-01T03:41:20.705Z,140
2018-06-01T03:42:20.699Z,140
2018-06-01T03:43:20.763Z,140
2018-06-01T03:44:20.784Z,144
2018-06-01T03:45:20.784Z,152
2018-06-01T03:46:20.814Z,164
2018-06-01T03:47:20.862Z,176
2018-06-01T03:48:20.870Z,188
2018-06-01T03:49:20.646Z,200
2018-06-01T03:50:20.927Z,204
2018-06-01T03:51:20.941Z,208
2018-06-01T03:52:20.986Z,208
2018-06-01T03:53:20.992Z,208
2018-06-01T03:54:20.760Z,208
2018-06-01T03:55:21.064Z,208
2018-06-01T03:56:21.093Z,208
2018-06-01T03:57:21.159Z,212
2018-06-01T03:58:20.604Z,212
2018-06-01T03:59:21.150Z,216
2018-06-01T04:00:21.172Z,208
2018-06-01T04:01:20.936Z,200
2018-06-01T04:02:20.955Z,192
2018-06-01T04:03:20.984Z,188
2018-06-01T04:04:20.461Z,184
2018-06-01T04:05:21.313Z,176
2018-06-01T04:06:21.092Z,172
2018-06-01T04:07:21.091Z,168
2018-06-01T04:08:21.389Z,172
2018-06-01T04:09:21.167Z,180
2018-06-01T04:10:20.892Z,184
2018-06-01T04:11:20.918Z,188
2018-06-01T04:12:21.489Z,192
2018-06-01T04:13:21.257Z,200
2018-06-01T04:14:21.560Z,208
2018-06-01T04:15:21.576Z,216
2018-06-01T04:16:21.583Z,224
2018-06-01T04:17:21.634Z,232
2018-06-01T04:18:21.127Z,240
2018-06-01T04:19:21.402Z,248
2018-06-01T04:20:21.734Z,256
2018-06-01T04:21:21.470Z,264
2018-06-01T04:22:21.470Z,272
2018-06-01T04:23:21.519Z,284
2018-06-01T04:24:21.803Z,296
2018-06-01T04:25:21.557Z,312
2018-06-01T04:26:21.331Z,336
2018-06-01T04:27:21.890Z,388
2018-06-01T04:28:21.911Z,480
2018-06-01T04:29:21.399Z,544
2018-06-01T04:30:21.959Z,516
2018-06-01T04:31:21.702Z,464
2018-06-01T04:32:21.739Z,452
2018-06-01T04:33:21.757Z,476
2018-06-01T04:34:21.528Z,536
2018-06-01T04:35:21.816Z,596
2018-06-01T04:36:22.137Z,648
2018-06-01T04:37:21.599Z,704
2018-06-01T04:38:21.624Z,748
2018-06-01T04:39:22.262Z,772
2018-06-01T04:40:21.961Z,780
2018-06-01T04:41:21.693Z,788
2018-06-01T04:42:21.992Z,812
2018-06-01T04:43:22.031Z,852
2018-06-01T04:44:21.529Z,908
2018-06-01T04:45:21.803Z,980
2018-06-01T04:46:22.345Z,1020
2018-06-01T04:47:22.391Z,1024
2018-06-01T04:48:22.399Z,1000
2018-06-01T04:49:22.729Z,980
2018-06-01T04:50:22.197Z,964
2018-06-01T04:51:22.512Z,904
2018-06-01T04:52:22.274Z,844
2018-06-01T04:53:22.534Z,804
2018-06-01T04:54:22.593Z,764
2018-06-01T04:55:22.327Z,724
2018-06-01T04:56:22.371Z,628
2018-06-01T04:57:22.369Z,560
2018-06-01T04:58:22.408Z,504
2018-06-01T04:59:22.715Z,456
2018-06-01T05:00:22.455Z,412
2018-06-01T05:01:22.794Z,400
2018-06-01T05:02:22.244Z,404
2018-06-01T05:03:23.378Z,400
2018-06-01T05:04:22.592Z,440
2018-06-01T05:05:22.862Z,484
2018-06-01T05:06:22.896Z,440
2018-06-01T05:07:22.924Z,356
2018-06-01T05:08:22.966Z,316
2018-06-01T05:09:22.963Z,308
2018-06-01T05:10:23.006Z,320
2018-06-01T05:11:23.028Z,352
2018-06-01T05:12:23.057Z,388
2018-06-01T05:13:22.807Z,408
2018-06-01T05:14:23.078Z,440
2018-06-01T05:15:23.117Z,420
2018-06-01T05:16:23.149Z,400
2018-06-01T05:17:23.199Z,380
2018-06-01T05:18:23.251Z,388
2018-06-01T05:19:23.256Z,432
2018-06-01T05:20:23.205Z,500
2018-06-01T05:21:23.663Z,508
2018-06-01T05:22:23.841Z,404
2018-06-01T05:23:23.049Z,328
2018-06-01T05:24:23.361Z,308
2018-06-01T05:25:23.123Z,316
2018-06-01T05:26:22.883Z,340
2018-06-01T05:27:23.145Z,364
2018-06-01T05:28:23.192Z,336
2018-06-01T05:29:23.463Z,316
2018-06-01T05:30:23.521Z,324
2018-06-01T05:31:23.286Z,356
2018-06-01T05:32:23.296Z,400
2018-06-01T05:33:23.066Z,460
2018-06-01T05:34:23.340Z,568
2018-06-01T05:35:23.434Z,804
2018-06-01T05:36:23.703Z,1044
2018-06-01T05:37:23.427Z,1356
2018-06-01T05:38:23.743Z,1632
2018-06-01T05:39:23.245Z,1732
2018-06-01T05:40:23.512Z,1816
2018-06-01T05:41:23.540Z,1844
2018-06-01T05:42:23.569Z,1832
2018-06-01T05:43:23.862Z,1784
2018-06-01T05:44:23.903Z,1700
2018-06-01T05:45:23.891Z,1580
2018-06-01T05:46:23.672Z,1564
2018-06-01T05:47:24.077Z,1620
2018-06-01T05:48:23.733Z,1648
2018-06-01T05:49:23.751Z,1736
2018-06-01T05:50:23.479Z,1860
2018-06-01T05:51:23.784Z,2016
2018-06-01T05:52:23.819Z,2192
2018-06-01T05:53:23.877Z,2364
2018-06-01T05:54:23.705Z,2476
2018-06-01T05:55:23.897Z,2412
2018-06-01T05:56:24.585Z,2148
2018-06-01T05:57:24.207Z,1820
2018-06-01T05:58:24.238Z,1700
2018-06-01T05:59:24.279Z,1716
2018-06-01T06:00:24.310Z,1764
2018-06-01T06:01:24.357Z,1776
2018-06-01T06:02:24.064Z,1792
2018-06-01T06:03:24.424Z,1896
2018-06-01T06:04:24.387Z,2032
2018-06-01T06:05:24.160Z,2020
2018-06-01T06:06:24.480Z,1896
2018-06-01T06:07:23.960Z,1712
2018-06-01T06:08:24.237Z,1580
2018-06-01T06:09:24.278Z,1488
2018-06-01T06:10:24.583Z,1452
2018-06-01T06:11:24.785Z,1420
2018-06-01T06:12:24.595Z,1380
2018-06-01T06:13:24.939Z,1344
2018-06-01T06:14:24.385Z,1304
2018-06-01T06:15:24.681Z,1272
2018-06-01T06:16:24.741Z,1236
2018-06-01T06:17:24.213Z,1200
2018-06-01T06:18:24.781Z,1168
2018-06-01T06:19:24.541Z,1132
2018-06-01T06:20:24.835Z,1116
2018-06-01T06:21:24.590Z,1088
2018-06-01T06:22:24.904Z,1044
2018-06-01T06:23:24.626Z,988
2018-06-01T06:24:24.659Z,932
2018-06-01T06:25:24.958Z,872
2018-06-01T06:26:24.977Z,800
2018-06-01T06:27:25.014Z,784
2018-06-01T06:28:24.791Z,796
2018-06-01T06:29:25.044Z,804
2018-06-01T06:30:25.074Z,804
2018-06-01T06:31:24.958Z,796
2018-06-01T06:32:25.150Z,784
2018-06-01T06:33:25.210Z,760
2018-06-01T06:34:25.212Z,736
2018-06-01T06:35:25.247Z,720
2018-06-01T06:36:25.259Z,684
2018-06-01T06:37:25.284Z,640
2018-06-01T06:38:25.319Z,608
2018-06-01T06:39:25.056Z,580
2018-06-01T06:40:25.390Z,552
2018-06-01T06:41:25.395Z,536
2018-06-01T06:42:25.154Z,520
2018-06-01T06:43:25.426Z,508
2018-06-01T06:44:25.198Z,492
2018-06-01T06:45:25.495Z,472
2018-06-01T06:46:25.231Z,456
2018-06-01T06:47:25.273Z,444
2018-06-01T06:48:25.602Z,432
2018-06-01T06:49:25.612Z,424
2018-06-01T06:50:25.352Z,420
2018-06-01T06:51:25.488Z,412
2018-06-01T06:52:25.417Z,408
2018-06-01T06:53:25.706Z,412
2018-06-01T06:54:25.485Z,408
2018-06-01T06:55:25.492Z,408
2018-06-01T06:56:25.519Z,408
2018-06-01T06:57:25.853Z,412
2018-06-01T06:58:25.846Z,416
2018-06-01T06:59:25.644Z,420
2018-06-01T07:00:25.892Z,424
2018-06-01T07:01:25.915Z,428
2018-06-01T07:02:25.947Z,432
2018-06-01T07:03:25.966Z,436
2018-06-01T07:04:25.470Z,440
2018-06-01T07:05:25.753Z,448
2018-06-01T07:06:26.067Z,460
2018-06-01T07:07:25.546Z,476
2018-06-01T07:08:25.851Z,488
2018-06-01T07:09:26.125Z,500
2018-06-01T07:10:26.142Z,512
2018-06-01T07:11:26.159Z,524
2018-06-01T07:12:25.934Z,536
2018-06-01T07:13:26.249Z,548
2018-06-01T07:14:26.271Z,560
2018-06-01T07:15:26.038Z,576
2018-06-01T07:16:26.062Z,588
2018-06-01T07:17:26.346Z,604
2018-06-01T07:18:26.113Z,620
2018-06-01T07:19:26.410Z,640
2018-06-01T07:20:26.341Z,660
2018-06-01T07:21:26.442Z,676
2018-06-01T07:22:26.702Z,692
2018-06-01T07:23:25.974Z,708
2018-06-01T07:24:26.259Z,724
2018-06-01T07:25:26.602Z,736
2018-06-01T07:26:26.622Z,748
2018-06-01T07:27:26.613Z,760
2018-06-01T07:28:26.121Z,776
2018-06-01T07:29:26.680Z,788
2018-06-01T07:30:26.146Z,800
2018-06-01T07:31:26.463Z,812
2018-06-01T07:32:26.493Z,828
2018-06-01T07:33:26.955Z,844
2018-06-01T07:34:26.535Z,856
2018-06-01T07:35:26.025Z,872
2018-06-01T07:36:26.857Z,884
2018-06-01T07:37:26.873Z,896
2018-06-01T07:38:26.916Z,908
2018-06-01T07:39:26.974Z,928
2018-06-01T07:40:26.953Z,940
2018-06-01T07:41:26.710Z,956
2018-06-01T07:42:26.469Z,972
2018-06-01T07:43:27.050Z,988
2018-06-01T07:44:27.091Z,1000
2018-06-01T07:45:26.835Z,1012
2018-06-01T07:46:27.121Z,1032
2018-06-01T07:47:26.867Z,1056
2018-06-01T07:48:27.183Z,1080
2018-06-01T07:49:26.653Z,1104
2018-06-01T07:50:26.991Z,1124
2018-06-01T07:51:26.970Z,1148
2018-06-01T07:52:27.027Z,1164
2018-06-01T07:53:27.311Z,1176
2018-06-01T07:54:27.386Z,1192
2018-06-01T07:55:27.361Z,1208
2018-06-01T07:56:27.123Z,1220
2018-06-01T07:57:27.433Z,1232
2018-06-01T07:58:27.180Z,1248
2018-06-01T07:59:26.941Z,1268
2018-06-01T08:00:27.251Z,1284
2018-06-01T08:01:27.539Z,1304
2018-06-01T08:02:27.292Z,1324
2018-06-01T08:03:27.605Z,1344
2018-06-01T08:04:27.634Z,1368
2018-06-01T08:05:27.110Z,1388
2018-06-01T08:06:27.646Z,1412
2018-06-01T08:07:27.726Z,1436
2018-06-01T08:08:27.174Z,1456
2018-06-01T08:09:27.783Z,1468
2018-06-01T08:10:27.507Z,1484
2018-06-01T08:11:27.261Z,1496
2018-06-01T08:12:27.820Z,1520
2018-06-01T08:13:27.768Z,1560
2018-06-01T08:14:27.851Z,1600
2018-06-01T08:15:27.886Z,1624
2018-06-01T08:16:27.658Z,1640
2018-06-01T08:17:27.708Z,1644
2018-06-01T08:18:27.976Z,1676
2018-06-01T08:19:28.013Z,1732
2018-06-01T08:20:28.200Z,1788
2018-06-01T08:21:28.103Z,1852
2018-06-01T08:22:28.113Z,1900
2018-06-01T08:23:28.126Z,1936
2018-06-01T08:24:27.879Z,1952
2018-06-01T08:25:27.912Z,1956
2018-06-01T08:26:27.919Z,1936
2018-06-01T08:27:27.699Z,1904
2018-06-01T08:28:27.699Z,1892
2018-06-01T08:29:28.013Z,1920
2018-06-01T08:30:27.765Z,1964
2018-06-01T08:31:28.061Z,2028
2018-06-01T08:32:28.285Z,2096
2018-06-01T08:33:28.373Z,2176
2018-06-01T08:34:28.396Z,2252
2018-06-01T08:35:28.433Z,2296
2018-06-01T08:36:28.439Z,2332
2018-06-01T08:37:28.213Z,2356
2018-06-01T08:38:28.546Z,2376
2018-06-01T08:39:28.836Z,2396
2018-06-01T08:40:28.042Z,2412
2018-06-01T08:41:28.596Z,2432
2018-06-01T08:42:27.809Z,2444
2018-06-01T08:43:28.389Z,2464
2018-06-01T08:44:28.698Z,2484
2018-06-01T08:45:28.706Z,2508
2018-06-01T08:46:28.655Z,2528
2018-06-01T08:47:28.772Z,2552
2018-06-01T08:48:28.786Z,2572
2018-06-01T08:49:28.282Z,2584
2018-06-01T08:50:28.842Z,2592
2018-06-01T08:51:28.853Z,2604
2018-06-01T08:52:28.973Z,2608
2018-06-01T08:53:28.936Z,2616
2018-06-01T08:54:28.986Z,2620
2018-06-01T08:55:28.958Z,2620
2018-06-01T08:56:28.997Z,2608
2018-06-01T08:57:28.747Z,2600
2018-06-01T08:58:29.066Z,2588
2018-06-01T08:59:28.802Z,2572
2018-06-01T09:00:28.583Z,2560
2018-06-01T09:01:29.142Z,2556
2018-06-01T09:02:28.887Z,2548
2018-06-01T09:03:28.942Z,2536
2018-06-01T09:04:29.212Z,2516
2018-06-01T09:05:29.234Z,2500
2018-06-01T09:06:29.295Z,2488
2018-06-01T09:07:29.305Z,2472
2018-06-01T09:08:28.525Z,2452
2018-06-01T09:09:29.096Z,2420
2018-06-01T09:10:29.649Z,2392
2018-06-01T09:11:29.441Z,2372
2018-06-01T09:12:29.450Z,2360
2018-06-01T09:13:29.469Z,2344
2018-06-01T09:14:28.962Z,2324
2018-06-01T09:15:29.527Z,2320
2018-06-01T09:16:29.278Z,2312
2018-06-01T09:17:29.598Z,2304
2018-06-01T09:18:29.620Z,2288
2018-06-01T09:19:28.820Z,2276
2018-06-01T09:20:29.644Z,2264
2018-06-01T09:21:29.688Z,2252
2018-06-01T09:22:29.174Z,2248
2018-06-01T09:23:29.743Z,2244
2018-06-01T09:24:29.499Z,2240
2018-06-01T09:25:29.534Z,2240
2018-06-01T09:26:29.845Z,2244
2018-06-01T09:27:29.583Z,2244
2018-06-01T09:28:29.723Z,2252
2018-06-01T09:29:29.926Z,2268
2018-06-01T09:30:29.939Z,2288
2018-06-01T09:31:29.996Z,2308
2018-06-01T09:32:30.003Z,2320
2018-06-01T09:33:29.768Z,2340
2018-06-01T09:34:29.972Z,2364
2018-06-01T09:35:30.085Z,2388
2018-06-01T09:36:30.117Z,2412
2018-06-01T09:37:30.133Z,2424
2018-06-01T09:38:29.896Z,2440
2018-06-01T09:39:30.207Z,2452
2018-06-01T09:40:30.221Z,2472
2018-06-01T09:41:29.689Z,2492
2018-06-01T09:42:30.270Z,2512
2018-06-01T09:43:30.283Z,2536
2018-06-01T09:44:30.063Z,2556
2018-06-01T09:45:30.089Z,2572
2018-06-01T09:46:30.358Z,2584
2018-06-01T09:47:30.393Z,2604
2018-06-01T09:48:30.183Z,2616
2018-06-01T09:49:30.161Z,2632
2018-06-01T09:50:30.480Z,2656
2018-06-01T09:51:29.701Z,2688
2018-06-01T09:52:30.031Z,2716
2018-06-01T09:53:30.599Z,2748
2018-06-01T09:54:30.069Z,2780
2018-06-01T09:55:30.584Z,2808
2018-06-01T09:56:30.399Z,2836
2018-06-01T09:57:30.412Z,2860
2018-06-01T09:58:30.469Z,2884
2018-06-01T09:59:30.469Z,2908
2018-06-01T10:00:30.510Z,2940
2018-06-01T10:01:30.540Z,2976
2018-06-01T10:02:30.602Z,3004
2018-06-01T10:03:30.593Z,3028
2018-06-01T10:04:30.612Z,3040
2018-06-01T10:05:30.886Z,3060
2018-06-01T10:06:30.672Z,3076
2018-06-01T10:07:30.694Z,3084
2018-06-01T10:08:30.741Z,3096
2018-06-01T10:09:31.024Z,3108
2018-06-01T10:10:30.792Z,3104
2018-06-01T10:11:31.079Z,3116
2018-06-01T10:12:31.107Z,3168
2018-06-01T10:13:31.143Z,3196
2018-06-01T10:14:31.169Z,3180
2018-06-01T10:15:31.064Z,3128
2018-06-01T10:16:31.229Z,3076
2018-06-01T10:17:30.688Z,3024
2018-06-01T10:18:31.291Z,3040
2018-06-01T10:19:30.759Z,3096
2018-06-01T10:20:31.363Z,3132
2018-06-01T10:21:31.343Z,3140
2018-06-01T10:22:31.384Z,3208
2018-06-01T10:23:31.149Z,3292
2018-06-01T10:24:31.186Z,3424
2018-06-01T10:25:31.473Z,3508
2018-06-01T10:26:31.375Z,3604
2018-06-01T10:27:31.271Z,3668
2018-06-01T10:28:31.533Z,3704
2018-06-01T10:29:31.313Z,3680
2018-06-01T10:30:31.351Z,3500
2018-06-01T10:31:31.383Z,3472
2018-06-01T10:32:31.691Z,3524
2018-06-01T10:33:31.716Z,3572
2018-06-01T10:34:31.465Z,3736
2018-06-01T10:35:31.503Z,3620
2018-06-01T10:36:31.522Z,3472
2018-06-01T10:37:31.553Z,3404
2018-06-01T10:38:31.574Z,3432
2018-06-01T10:39:31.433Z,3424
2018-06-01T10:40:31.905Z,3488
2018-06-01T10:41:31.678Z,3472
2018-06-01T10:42:31.961Z,3392
2018-06-01T10:43:31.979Z,3336
2018-06-01T10:44:31.757Z,3220
2018-06-01T10:45:31.499Z,3148
2018-06-01T10:46:31.552Z,3064
2018-06-01T10:47:31.824Z,2988
2018-06-01T10:48:32.111Z,2932
2018-06-01T10:49:32.022Z,2864
2018-06-01T10:50:32.184Z,2824
2018-06-01T10:51:32.208Z,2796
2018-06-01T10:52:31.993Z,2776
2018-06-01T10:53:32.283Z,2796
2018-06-01T10:54:32.343Z,2808
2018-06-01T10:55:32.081Z,2788
2018-06-01T10:56:31.817Z,2800
2018-06-01T10:57:32.419Z,2852
2018-06-01T10:58:32.450Z,2912
2018-06-01T10:59:32.193Z,2956
2018-06-01T11:00:32.474Z,2980
2018-06-01T11:01:32.536Z,3012
2018-06-01T11:02:32.559Z,3064
2018-06-01T11:03:31.756Z,3076
2018-06-01T11:04:32.371Z,3088
2018-06-01T11:05:32.612Z,3116
2018-06-01T11:06:32.664Z,3100
2018-06-01T11:07:32.418Z,3104
2018-06-01T11:08:32.711Z,3140
2018-06-01T11:09:32.765Z,3152
2018-06-01T11:10:32.242Z,3212
2018-06-01T11:11:32.818Z,3188
2018-06-01T11:12:32.562Z,3184
2018-06-01T11:13:32.865Z,3184
2018-06-01T11:14:32.793Z,3196
2018-06-01T11:15:32.677Z,3228
2018-06-01T11:16:32.659Z,3256
2018-06-01T11:17:32.973Z,3280
2018-06-01T11:18:32.742Z,3324
2018-06-01T11:19:32.555Z,3312
2018-06-01T11:20:32.519Z,3280
2018-06-01T11:21:33.025Z,3256
2018-06-01T11:22:33.126Z,3260
2018-06-01T11:23:32.629Z,3284
2018-06-01T11:24:33.192Z,3284
2018-06-01T11:25:33.238Z,3280
2018-06-01T11:26:33.269Z,3248
2018-06-01T11:27:33.278Z,3256
2018-06-01T11:28:33.022Z,3292
2018-06-01T11:29:33.313Z,3320
2018-06-01T11:30:33.103Z,3356
2018-06-01T11:31:33.409Z,3340
2018-06-01T11:32:33.158Z,3312
2018-06-01T11:33:32.905Z,3308
2018-06-01T11:34:33.193Z,3324
2018-06-01T11:35:33.539Z,3340
2018-06-01T11:36:33.562Z,3324
2018-06-01T11:37:33.578Z,3340
2018-06-01T11:38:33.178Z,3364
2018-06-01T11:39:33.388Z,3396
2018-06-01T11:40:33.679Z,3416
2018-06-01T11:41:33.188Z,3416
2018-06-01T11:42:33.470Z,3420
2018-06-01T11:43:33.796Z,3420
2018-06-01T11:44:33.537Z,3568
2018-06-01T11:45:33.562Z,4068
2018-06-01T11:46:33.590Z,4412
2018-06-01T11:47:33.635Z,4236
2018-06-01T11:48:33.962Z,3772
2018-06-01T11:49:33.976Z,3696
2018-06-01T11:50:33.994Z,3696
2018-06-01T11:51:34.231Z,3800
2018-06-01T11:52:34.032Z,3980
2018-06-01T11:53:34.084Z,3964
2018-06-01T11:54:34.129Z,3948
2018-06-01T11:55:33.892Z,3948
2018-06-01T11:56:33.898Z,4004
2018-06-01T11:57:34.274Z,4148
2018-06-01T11:58:33.970Z,4360
2018-06-01T11:59:33.976Z,4280
2018-06-01T12:00:34.321Z,5584
2018-06-01T12:01:34.057Z,5092
2018-06-01T12:02:34.392Z,4324
2018-06-01T12:03:34.167Z,4684
2018-06-01T12:04:34.445Z,5336
2018-06-01T12:05:34.466Z,5760
2018-06-01T12:06:34.520Z,5352
2018-06-01T12:07:34.560Z,4572
2018-06-01T12:08:34.317Z,4276
2018-06-01T12:09:34.603Z,4044
2018-06-01T12:10:34.356Z,4044
2018-06-01T12:11:34.660Z,4112
2018-06-01T12:12:34.151Z,4108
2018-06-01T12:13:34.467Z,4108
2018-06-01T12:14:34.763Z,4068
2018-06-01T12:15:34.818Z,4028
2018-06-01T12:16:34.561Z,4100
2018-06-01T12:17:35.165Z,4216
2018-06-01T12:18:34.922Z,4400
2018-06-01T12:19:34.653Z,4704
2018-06-01T12:20:34.685Z,4900
2018-06-01T12:21:34.705Z,4484
2018-06-01T12:22:34.761Z,4840
2018-06-01T12:23:35.049Z,5352
2018-06-01T12:24:34.827Z,5540
2018-06-01T12:25:35.100Z,4764
2018-06-01T12:26:35.145Z,3308
2018-06-01T12:27:35.172Z,2248
2018-06-01T12:28:34.957Z,4648
2018-06-01T12:29:35.110Z,2684
2018-06-01T12:30:35.034Z,4340
2018-06-01T12:31:35.040Z,4388
2018-06-01T12:32:35.088Z,4336
2018-06-01T12:33:35.124Z,4344
2018-06-01T12:34:35.416Z,4516
2018-06-01T12:35:35.166Z,5004
2018-06-01T12:36:35.232Z,4580
2018-06-01T12:37:35.042Z,2220
2018-06-01T12:38:35.293Z,2156
2018-06-01T12:39:35.618Z,5060
2018-06-01T12:40:35.350Z,5752
2018-06-01T12:41:35.398Z,4820
2018-06-01T12:42:35.196Z,5160
2018-06-01T12:43:35.468Z,5952
2018-06-01T12:44:35.780Z,5584
2018-06-01T12:45:35.799Z,4636
2018-06-01T12:46:35.558Z,4608
2018-06-01T12:47:35.580Z,4612
2018-06-01T12:48:35.872Z,4532
2018-06-01T12:49:35.407Z,4652
2018-06-01T12:50:35.967Z,4644
2018-06-01T12:51:35.192Z,4572
2018-06-01T12:52:36.043Z,4540
2018-06-01T12:53:36.069Z,4516
2018-06-01T12:54:35.829Z,4528
2018-06-01T12:55:36.164Z,4548
2018-06-01T12:56:35.896Z,4460
2018-06-01T12:57:35.960Z,1924
2018-06-01T12:58:36.233Z,2752
2018-06-01T12:59:36.004Z,3244
2018-06-01T13:00:36.336Z,2560
2018-06-01T13:01:36.350Z,3132
2018-06-01T13:02:36.391Z,3696
2018-06-01T13:03:36.302Z,3668
2018-06-01T13:04:36.456Z,5060
2018-06-01T13:05:36.493Z,3616
2018-06-01T13:06:36.512Z,2752
2018-06-01T13:07:36.541Z,2836
2018-06-01T13:08:36.589Z,3400
2018-06-01T13:09:36.380Z,2620
2018-06-01T13:10:36.396Z,2544
2018-06-01T13:11:36.408Z,5296
2018-06-01T13:12:36.447Z,6284
2018-06-01T13:13:36.484Z,6576
2018-06-01T13:14:36.522Z,3516
2018-06-01T13:15:36.593Z,3168
2018-06-01T13:16:36.878Z,3900
2018-06-01T13:17:36.380Z,4080
2018-06-01T13:18:36.964Z,5816
2018-06-01T13:19:37.003Z,6996
2018-06-01T13:20:37.341Z,5132
2018-06-01T13:21:37.050Z,6032
2018-06-01T13:22:36.543Z,6692
2018-06-01T13:23:36.883Z,3592
2018-06-01T13:24:36.894Z,3372
2018-06-01T13:25:37.211Z,3180
2018-06-01T13:26:37.211Z,2672
2018-06-01T13:27:37.268Z,5876
2018-06-01T13:28:36.773Z,4772
2018-06-01T13:29:37.406Z,4692
2018-06-01T13:30:37.413Z,4668
2018-06-01T13:31:37.380Z,4348
2018-06-01T13:32:37.449Z,3808
2018-06-01T13:33:37.467Z,4768
2018-06-01T13:34:37.261Z,7192
2018-06-01T13:35:37.290Z,7312
2018-06-01T13:36:37.321Z,7048
2018-06-01T13:37:36.802Z,6880
2018-06-01T13:38:37.650Z,6716
2018-06-01T13:39:37.421Z,6456
2018-06-01T13:40:37.463Z,6328
2018-06-01T13:41:37.780Z,6444
2018-06-01T13:42:37.792Z,6472
2018-06-01T13:43:37.865Z,5024
2018-06-01T13:44:37.340Z,4276